Sedan, Nebraska
Current Conditions -  °F | °C
As of 10:55 AM on Friday 28 Nov 2014 (Local Time) from KHJH Reporting Station
Clear Clear  
Wind Chill: 46°   Ceiling: Unl
Heat Index: 48°   Visibility: 10mi
Dew Point: 27°   Wind: 6mph
Humidity: 43%   Direction: 220°SW
Pressure: 29.83"   Gusts: NA
Location:  40.3506°N, 97.9931°W
Report Text: KHJH 281655Z AUTO 22005KT 10SM CLR 09/M03 A2983 RMK AO2 T00901030
Loading
Personal Weather Stations






























Interactive Weather Map New forecast layout! Learn more

10-Day Weather Forecast

Advertisements
Track Severe Weather on mobile